Latest Coastal Weather Observations for Hogan Island

IDV60701

Issued at 4:52 am EST Friday 28 July 2017 (issued every 10 minutes, with the page automatically refreshed every 10 minutes)

About coastal observations | Map of coastal stations | Coastal observations for VIC | Marine services | Other Formats
Station Details ID: 200838 Name: HOGAN ISLAND Lat: -39.22 Lon: 146.98 Height: 116.0 m
Data from the previous 72 hours. | See also: Recent months at Hogan Island
Date/Time
EST
Temp
°C
Wind Pressure Rain since
9am
mm
Weather Cloud Vis
km
Sea
Height
m
Swell
Dir  Spd
kts
Gust
kts
hPa Trend Height
m
Period
s
Dir
28/04:30am 9.5 WNW 26 31 1010.7 - 2.6 - - - - - - -
28/04:21am 9.6 NW 19 29 1011.0 - 2.0 - - - - - - -
28/04:00am 9.6 NW 19 24 1011.2 - 1.8 - - - - - - -
28/03:30am 9.6 NNW 16 21 1011.2 - 1.8 - - - - - - -
28/03:00am 9.3 NNW 17 20 1011.3 - 1.8 - - - - - - -
28/02:30am 9.6 NNW 15 22 1011.1 - 1.4 - - - - - - -
28/02:00am 9.8 NNW 19 27 1011.2 - 1.2 - - - - - - -
28/01:30am 10.1 NNW 14 22 1011.4 - 1.0 - - - - - - -
28/01:00am 10.1 N 16 21 1011.6 - 1.0 - - - - - - -
28/12:30am 9.7 N 16 19 1011.9 - 1.0 - - - - - - -
28/12:00am 9.8 N 19 23 1012.2 - 1.0 - - - - - - -
 
Date/Time
EST
Temp
°C
Wind Pressure Rain since
9am
mm
Weather Cloud Vis
km
Sea
Height
m
Swell
Dir  Spd
kts
Gust
kts
hPa Trend Height
m
Period
s
Dir
27/11:30pm 10.2 N 16 23 1012.7 - 1.0 - - - - - - -
27/11:00pm 10.0 NNW 19 26 1013.2 - 0.8 - - - - - - -
27/10:31pm 10.5 NW 18 29 1013.6 - 0.0 - - - - - - -
27/10:30pm 10.8 NW 17 22 1013.8 - 0.0 - - - - - - -
27/10:00pm 10.9 N 12 15 1013.8 - 0.0 - - - - - - -
27/09:30pm 11.3 N 17 22 1014.1 - 0.0 - - - - - - -
27/09:00pm 11.3 N 18 23 1014.4 - 0.0 - - - - - - -
27/08:30pm 11.3 N 20 24 1014.5 - 0.0 - - - - - - -
27/08:00pm 10.9 N 16 20 1014.7 - 0.0 - - - - - - -
27/07:30pm 10.7 N 18 21 1014.7 - 0.0 - - - - - - -
27/07:00pm 10.8 N 17 21 1014.9 - 0.0 - - - - - - -
27/06:30pm 10.9 N 17 21 1015.2 - 0.0 - - - - - - -
27/06:00pm 10.7 N 15 19 1015.7 - 0.0 - - - - - - -
27/05:30pm 10.7 N 15 19 1015.4 - 0.0 - - - - - - -
27/05:00pm 10.6 NNE 17 20 1015.3 - 0.0 - - - - - - -
27/04:30pm 10.6 N 15 19 1015.4 - 0.0 - - - - - - -
27/04:00pm 10.4 N 18 21 1015.7 - 0.0 - - - - - - -
27/03:30pm 10.6 N 16 19 1016.2 - 0.0 - - - - - - -
27/03:00pm 10.7 N 18 21 1016.2 - 0.0 - - - - - - -
27/02:30pm 11.1 N 16 21 1016.6 - 0.0 - - - - - - -
27/02:00pm 11.9 N 14 19 1017.5 - 0.0 - - - - - - -
27/01:30pm 12.0 N 14 18 1018.1 - 0.0 - - - - - - -
27/01:00pm 11.4 N 14 18 1018.7 - 0.0 - - - - - - -
27/12:30pm 11.7 N 12 16 1019.6 - 0.0 - - - - - - -
27/12:00pm 11.9 N 12 16 1020.4 - 0.0 - - - - - - -
27/11:30am 10.5 NNW 11 16 1020.9 - 0.0 - - - - - - -
27/11:00am 10.7 N 12 16 1021.1 - 0.0 - - - - - - -
27/10:30am 11.5 N 11 15 1021.5 - 0.0 - - - - - - -
27/10:00am 10.9 NNW 12 16 1021.6 - 0.0 - - - - - - -
27/09:30am 10.2 NW 16 20 1021.8 - 0.0 - - - - - - -
27/09:00am 10.0 NW 13 17 1022.0 - 0.2 - - - - - - -
27/08:30am 10.0 NW 13 17 1022.0 - 0.2 - - - - - - -
27/08:00am 9.4 NW 15 21 1021.8 - 0.2 - - - - - - -
27/07:30am 9.4 NW 14 19 1021.5 - 0.2 - - - - - - -
27/07:00am 9.4 NW 11 15 1021.3 - 0.2 - - - - - - -
27/06:30am 9.8 WNW 11 14 1021.2 - 0.2 - - - - - - -
27/06:00am 9.7 WNW 13 15 1021.1 - 0.2 - - - - - - -
27/05:30am 9.4 W 15 18 1021.0 - 0.2 - - - - - - -
27/05:00am 9.3 W 14 17 1020.8 - 0.2 - - - - - - -
27/04:30am 9.2 W 14 16 1021.0 - 0.2 - - - - - - -
27/04:00am 9.3 WSW 15 17 1021.1 - 0.2 - - - - - - -
27/03:30am 9.5 W 18 21 1021.1 - 0.2 - - - - - - -
27/03:00am 9.5 WSW 17 22 1021.5 - 0.2 - - - - - - -
27/02:30am 9.7 W 19 23 1021.6 - 0.2 - - - - - - -
27/02:00am 9.5 WSW 15 19 1021.9 - 0.2 - - - - - - -
27/01:30am 9.4 WSW 15 18 1021.8 - 0.2 - - - - - - -
27/01:00am 9.8 W 20 25 1021.4 - 0.2 - - - - - - -
27/12:30am 9.5 WSW 18 21 1021.6 - 0.2 - - - - - - -
27/12:00am 9.3 WSW 16 19 1021.7 - 0.2 - - - - - - -
 
Date/Time
EST
Temp
°C
Wind Pressure Rain since
9am
mm
Weather Cloud Vis
km
Sea
Height
m
Swell
Dir  Spd
kts
Gust
kts
hPa Trend Height
m
Period
s
Dir
26/11:30pm 9.3 WSW 17 20 1021.7 - 0.2 - - - - - - -
26/11:00pm 9.6 WSW 20 25 1021.5 - 0.2 - - - - - - -
26/10:30pm 9.4 WSW 21 26 1021.3 - 0.2 - - - - - - -
26/10:00pm 9.5 WSW 22 26 1021.2 - 0.2 - - - - - - -
26/09:30pm 9.5 WSW 23 29 1021.1 - 0.2 - - - - - - -
26/09:00pm 9.8 SW 21 25 1021.2 - 0.2 - - - - - - -
26/08:30pm 9.5 WSW 25 29 1020.6 - 0.2 - - - - - - -
26/08:00pm 9.5 WSW 28 31 1020.2 - 0.2 - - - - - - -
26/07:30pm 9.5 WSW 27 31 1019.9 - 0.2 - - - - - - -
26/07:00pm 9.8 WSW 29 35 1019.2 - 0.2 - - - - - - -
26/06:30pm 9.9 WSW 32 38 1018.4 - 0.2 - - - - - - -
26/06:00pm 9.8 WSW 33 38 1018.4 - 0.2 - - - - - - -
26/05:30pm 10.0 WSW 32 37 1018.0 - 0.2 - - - - - - -
26/05:00pm 10.1 WSW 35 40 1017.4 - 0.2 - - - - - - -
26/04:30pm 10.4 WSW 36 41 1016.8 - 0.2 - - - - - - -
26/04:00pm 10.6 WSW 36 43 1016.4 - 0.2 - - - - - - -
26/03:30pm 10.9 WSW 34 40 1015.8 - 0.2 - - - - - - -
26/03:00pm 11.2 WSW 35 42 1015.2 - 0.2 - - - - - - -
26/02:30pm 11.1 WSW 39 44 1014.4 - 0.2 - - - - - - -
26/02:00pm 11.3 WSW 38 45 1013.9 - 0.2 - - - - - - -
26/01:30pm 11.4 WSW 41 47 1013.3 - 0.2 - - - - - - -
26/01:00pm 10.6 WSW 37 44 1013.0 - 0.2 - - - - - - -
26/12:30pm 11.1 WSW 38 44 1012.7 - 0.2 - - - - - - -
26/12:00pm 11.9 WSW 36 43 1012.6 - 0.2 - - - - - - -
26/11:30am 11.8 WSW 35 43 1012.1 - 0.2 - - - - - - -
26/11:00am 11.7 WSW 36 43 1011.9 - 0.2 - - - - - - -
26/10:30am 11.3 WSW 37 43 1011.3 - 0.2 - - - - - - -
26/10:00am 10.3 W 39 45 1010.4 - 0.2 - - - - - - -
26/09:38am 11.3 W 41 51 1009.5 - 0.0 - - - - - - -
26/09:30am 11.7 W 38 43 1009.7 - 0.0 - - - - - - -
26/09:00am 11.2 W 40 47 1009.4 - 3.6 - - - - - - -
26/08:30am 10.9 W 38 44 1009.1 - 3.6 - - - - - - -
26/08:14am 10.5 W 40 50 1008.8 - 3.6 - - - - - - -
26/08:00am 10.7 W 42 48 1008.3 - 3.6 - - - - - - -
26/07:36am 10.9 W 38 48 1008.4 - 3.4 - - - - - - -
26/07:30am 10.7 W 39 48 1008.0 - 3.4 - - - - - - -
26/07:00am 11.0 W 42 49 1007.3 - 3.2 - - - - - - -
26/06:30am 10.9 W 41 50 1007.0 - 3.2 - - - - - - -
26/06:00am 11.1 W 42 51 1006.7 - 3.2 - - - - - - -
26/05:30am 10.3 W 47 58 1005.9 - 3.2 - - - - - - -
26/05:22am 10.4 W 41 52 1005.6 - 3.2 - - - - - - -
26/05:00am 10.8 W 43 51 1006.1 - 3.2 - - - - - - -
26/04:34am 10.9 W 43 55 1005.9 - 3.0 - - - - - - -
26/04:30am 11.1 WNW 43 50 1005.9 - 3.0 - - - - - - -
26/04:00am 10.8 WNW 45 57 1005.2 - 2.8 - - - - - - -
26/03:30am 10.7 WNW 38 48 1006.2 - 2.4 - - - - - - -
26/03:26am 10.7 WNW 40 50 1006.2 - 2.2 - - - - - - -
26/03:00am 11.4 WNW 43 49 1006.0 - 1.8 - - - - - - -
26/02:30am 11.3 WNW 41 51 1005.6 - 1.8 - - - - - - -
26/02:00am 11.4 WNW 43 50 1005.8 - 1.8 - - - - - - -
26/01:31am 11.6 WNW 38 48 1006.3 - 1.8 - - - - - - -
26/01:30am 11.5 WNW 37 45 1006.4 - 1.8 - - - - - - -
26/01:19am 11.6 WNW 39 49 1006.4 - 1.8 - - - - - - -
26/01:00am 11.4 WNW 38 47 1006.5 - 1.8 - - - - - - -
26/12:30am 11.9 WNW 38 49 1006.8 - 1.8 - - - - - - -
26/12:00am 12.0 WNW 40 50 1007.0 - 1.8 - - - - - - -
 
Date/Time
EST
Temp
°C
Wind Pressure Rain since
9am
mm
Weather Cloud Vis
km
Sea
Height
m
Swell
Dir  Spd
kts
Gust
kts
hPa Trend Height
m
Period
s
Dir
25/11:54pm 12.1 WNW 39 50 1006.8 - 1.8 - - - - - - -
25/11:30pm 12.2 WNW 43 50 1006.7 - 1.8 - - - - - - -
25/11:01pm 12.3 WNW 35 45 1007.1 - 1.6 - - - - - - -
25/11:00pm 12.3 WNW 35 43 1007.2 - 1.6 - - - - - - -
25/10:50pm 12.0 WNW 34 40 1007.7 - 1.6 - - - - - - -
25/10:30pm 11.4 NW 22 29 1008.5 - 1.6 - - - - - - -
25/10:00pm 11.5 NW 20 24 1008.7 - 1.6 - - - - - - -
25/09:30pm 11.7 WNW 24 29 1008.6 - 1.6 - - - - - - -
25/09:00pm 11.7 WNW 23 28 1009.0 - 1.6 - - - - - - -
25/08:30pm 11.8 WNW 23 27 1009.4 - 1.6 - - - - - - -
25/08:00pm 12.0 WNW 25 29 1009.2 - 1.6 - - - - - - -
25/07:30pm 12.1 WNW 27 32 1009.3 - 1.6 - - - - - - -
25/07:00pm 11.5 WNW 24 29 1009.4 - 1.6 - - - - - - -
25/06:30pm 10.3 W 26 30 1009.2 - 1.6 - - - - - - -
25/06:22pm 9.7 WNW 28 38 1009.2 - 1.6 - - - - - - -
25/06:12pm 9.9 WNW 32 52 1009.2 - 1.0 - - - - - - -
25/06:06pm 10.8 W 42 52 1008.4 - 0.6 - - - - - - -
25/06:00pm 13.1 WNW 25 35 1008.8 - 0.0 - - - - - - -
25/05:59pm 13.4 WNW 23 33 1008.7 - 0.0 - - - - - - -
25/05:30pm 13.6 WNW 25 27 1008.5 - 0.0 - - - - - - -
25/05:00pm 14.0 WNW 26 30 1008.6 - 0.0 - - - - - - -
25/04:30pm 13.9 WNW 22 26 1008.9 - 0.0 - - - - - - -
25/04:00pm 14.2 WNW 18 20 1009.2 - 0.0 - - - - - - -
25/03:30pm 14.7 NW 17 21 1009.3 - 0.0 - - - - - - -
25/03:00pm 14.9 NW 25 31 1009.2 - 0.0 - - - - - - -
25/02:38pm 15.1 NW 25 35 1009.2 - 0.0 - - - - - - -
25/02:30pm 14.8 NW 25 33 1009.3 - 0.0 - - - - - - -
25/02:00pm 14.8 WNW 32 40 1009.0 - 0.0 - - - - - - -
25/01:30pm 14.9 NW 26 33 1009.4 - 0.0 - - - - - - -
25/01:00pm 15.1 NW 31 41 1010.0 - 0.0 - - - - - - -
25/12:39pm 14.7 NW 25 35 1010.5 - 0.0 - - - - - - -
25/12:30pm 14.6 NW 24 30 1010.9 - 0.0 - - - - - - -
25/12:00pm 13.4 NW 26 31 1011.5 - 0.0 - - - - - - -
25/11:30am 14.2 NW 27 33 1012.0 - 0.0 - - - - - - -
25/11:00am 13.4 NW 24 28 1012.6 - 0.0 - - - - - - -
25/10:30am 12.8 NNW 19 25 1013.2 - 0.0 - - - - - - -
25/10:00am 12.7 N 17 21 1013.4 - 0.0 - - - - - - -
25/09:30am 12.7 N 17 23 1013.6 - 0.0 - - - - - - -
25/09:00am 12.4 N 17 24 1014.0 - 2.8 - - - - - - -
25/08:30am 12.3 NNW 20 26 1014.0 - 2.8 - - - - - - -
25/08:00am 11.8 NW 27 32 1013.7 - 2.8 - - - - - - -
25/07:30am 11.6 WNW 27 33 1013.2 - 2.8 - - - - - - -
25/07:00am 11.3 WNW 26 31 1013.2 - 2.8 - - - - - - -
25/06:30am 11.0 NW 24 29 1014.0 - 2.8 - - - - - - -
25/06:00am 11.0 NW 24 30 1014.1 - 2.8 - - - - - - -
25/05:30am 11.0 NW 24 29 1014.0 - 2.8 - - - - - - -
25/05:00am 11.0 NW 23 29 1014.2 - 2.8 - - - - - - -

Other Formats:

Comma delimited format used in spreadsheet applications
http://www.bom.gov.au/fwo/IDV60701/IDV60701.94949.axf

JavaScript Object Notation format (JSON) in row-major order
http://www.bom.gov.au/fwo/IDV60701/IDV60701.94949.json